بلغراد, جمهورية صربيا

01:50 PM CEST on أعس×س 01, 2014 (GMT +0200)
Beograd-Karaburma (ISRBIJAB2) Elev 355 ft | 44.81 °N, 20.53 °E | Change Station

Current weather conditions updated 4 minutes ago

Scattered Clouds
غيوم متفرقة
71.8 °F
Feels Like 70 °F
N
7.0
ريح متغير ريح from جنوب
Gusts 7.0 mph

Today is forecast to be Much Warmer than yesterday. عواصف رعدية متفرقة..

هذا اليوم
High -- | Low -- °F
--% Chance of Precip.
Yesterday
High -- | Low -- °F
Precip. -- في
5:23 AM 8:04 PM
الهلال الأول, 26% visible
الضغط 29.83 في
وضوح الرؤية 6.2 أميال
سحابات غيوم متفرقة 2000 ft
مؤشر الحرارة 70 °F
نقطة الندى 67 °F
الرطوبة 86%
Rainfall 0.07 في
عمق الثلج Not available.
الأشعة فوق البنفسجية 8 out of 12
Pollen Not available.
جودة الهواء Not available.
Flu Activity Not available.
METAR LYBE 011130Z 10005KT 070V130 9999 SCT020 22/18 Q1010 NOSIG

More Conditions Fewer Conditions

الضغط 29.83 في
وضوح الرؤية 6.2 أميال
سحابات غيوم متفرقة 2000 ft
مؤشر الحرارة 70 °F
نقطة الندى 67 °F
الرطوبة 86%
Rainfall 0.07 في
عمق الثلج Not available.
الأشعة فوق البنفسجية 8 out of 12
Pollen Not available.
جودة الهواء Not available.
Flu Activity Not available.
METAR LYBE 011130Z 10005KT 070V130 9999 SCT020 22/18 Q1010 NOSIG

More Conditions Fewer Conditions

10-Day Weather Forecast

Almanac

علم الفلك

Aug. 01, 2014 Rise Set
Actual Time 5:23 AM CEST 8:04 PM CEST
Civil Twilight 4:50 AM CEST 8:37 PM CEST
Nautical Twilight 4:07 AM CEST 9:20 PM CEST
Astronomical Twilight 3:18 AM CEST 10:08 PM CEST
قمر 10:45 AM CEST 10:22 PM CEST
Length Of Visible Light 15h 47m
طول الیوم
14h 40m
Tomorrow will be 2m 23s shorter.
الهلال الأول, 26% of the Moon is Illuminated
هذا اليوم
الهلال الأول
Aug 3
الربع الاول
Aug 10
بدر
Aug 17
الربع الآخر
Aug 25
New

Community

WunderPhotos

Upload Photos

1,739,538 photos uploaded!

Nearby

جودة الهواء

Not available.

عمق الثلج

Not available.

Earthquake Activity

City Distance Mag. Time & Date
No recent earthquake activity has been reported nearby.
Minimum magnitude displayed is 2.5.

Coastal Water Temperatures

مكان درجات الحرارة
No Stations Reporting

Nearby Weather Stations

Station Location الحرارة مؤشر الحرارة نقطة الندى الرطوبة ريح Precip. Elev تحديث Type
Beograd-Karaburma, Beograd-Karaburma 71.8 °F 70 °F 67 °F 86% جنوب  عند  7.0 mph 0.00 في / hr 355 ft 1:46 PM CEST Normal
Pancevo 68.4 °F - 63 °F 84% NNW  عند  4.6 mph 0.00 في / hr 78 ft 1:50 PM CEST Rapid Fire
Misa, Pancevo 72.9 °F - 71 °F 95% شمال شرقی  عند  2.2 mph 0.00 في / hr 253 ft 1:50 PM CEST Rapid Fire
Zaklopaca, Grocka 68.8 °F - 67 °F 94% SSE  عند  0.0 mph 0.00 في / hr 577 ft 1:00 PM CEST Normal
Duboko vinogradi, Bari%u010D 70.5 °F - 66 °F 87% غرب  عند  0.0 mph 0.00 في / hr 522 ft 1:50 PM CEST Normal
Babe, vikend naselje, Sopot 68.0 °F - 66 °F 93% شمال  عند  - - / hr 1079 ft 1:35 PM CEST Normal

Show More Stations Show Fewer Stations